sensor_id;sensor_type;location;lat;lon;timestamp;P1;durP1;ratioP1;P2;durP2;ratioP2
73841;SDS011;62184;52.006;5.924;2022-11-15T00:02:17;61.97;;;22.53;;
73841;SDS011;62184;52.006;5.924;2022-11-15T00:04:43;61.20;;;22.03;;
73841;SDS011;62184;52.006;5.924;2022-11-15T00:07:09;70.23;;;23.00;;
73841;SDS011;62184;52.006;5.924;2022-11-15T00:09:36;70.18;;;23.17;;
73841;SDS011;62184;52.006;5.924;2022-11-15T00:12:02;67.53;;;23.10;;
73841;SDS011;62184;52.006;5.924;2022-11-15T00:14:29;77.20;;;24.70;;
73841;SDS011;62184;52.006;5.924;2022-11-15T00:16:58;67.45;;;23.38;;
73841;SDS011;62184;52.006;5.924;2022-11-15T00:19:25;68.45;;;23.77;;
73841;SDS011;62184;52.006;5.924;2022-11-15T00:21:51;65.78;;;22.80;;
73841;SDS011;62184;52.006;5.924;2022-11-15T00:24:17;67.68;;;24.30;;
73841;SDS011;62184;52.006;5.924;2022-11-15T00:26:44;68.80;;;24.05;;
73841;SDS011;62184;52.006;5.924;2022-11-15T00:29:10;70.63;;;24.95;;
73841;SDS011;62184;52.006;5.924;2022-11-15T00:31:37;68.32;;;24.42;;
73841;SDS011;62184;52.006;5.924;2022-11-15T00:34:06;68.10;;;24.65;;
73841;SDS011;62184;52.006;5.924;2022-11-15T00:36:32;73.90;;;26.23;;
73841;SDS011;62184;52.006;5.924;2022-11-15T00:38:59;66.25;;;24.30;;
73841;SDS011;62184;52.006;5.924;2022-11-15T00:41:25;70.95;;;25.45;;
73841;SDS011;62184;52.006;5.924;2022-11-15T00:43:52;72.15;;;25.13;;
73841;SDS011;62184;52.006;5.924;2022-11-15T00:46:18;71.65;;;25.30;;
73841;SDS011;62184;52.006;5.924;2022-11-15T00:48:45;74.93;;;25.15;;
73841;SDS011;62184;52.006;5.924;2022-11-15T00:51:14;70.70;;;24.92;;
73841;SDS011;62184;52.006;5.924;2022-11-15T00:53:40;74.18;;;26.75;;
73841;SDS011;62184;52.006;5.924;2022-11-15T00:56:07;77.65;;;26.02;;
73841;SDS011;62184;52.006;5.924;2022-11-15T00:58:33;70.07;;;24.92;;
73841;SDS011;62184;52.006;5.924;2022-11-15T01:01:06;74.20;;;25.35;;
73841;SDS011;62184;52.006;5.924;2022-11-15T01:03:34;73.70;;;25.30;;
73841;SDS011;62184;52.006;5.924;2022-11-15T01:06:01;72.80;;;25.08;;
73841;SDS011;62184;52.006;5.924;2022-11-15T01:08:31;71.30;;;24.52;;
73841;SDS011;62184;52.006;5.924;2022-11-15T01:10:59;66.77;;;24.83;;
73841;SDS011;62184;52.006;5.924;2022-11-15T01:13:29;69.10;;;25.48;;
73841;SDS011;62184;52.006;5.924;2022-11-15T01:15:57;63.07;;;24.53;;
73841;SDS011;62184;52.006;5.924;2022-11-15T01:18:24;70.37;;;24.97;;
73841;SDS011;62184;52.006;5.924;2022-11-15T01:20:50;71.50;;;25.23;;
73841;SDS011;62184;52.006;5.924;2022-11-15T01:23:16;77.65;;;25.50;;
73841;SDS011;62184;52.006;5.924;2022-11-15T01:25:45;67.60;;;24.67;;
73841;SDS011;62184;52.006;5.924;2022-11-15T01:28:12;72.93;;;25.20;;
73841;SDS011;62184;52.006;5.924;2022-11-15T01:30:38;66.27;;;25.37;;
73841;SDS011;62184;52.006;5.924;2022-11-15T01:33:05;73.77;;;26.33;;
73841;SDS011;62184;52.006;5.924;2022-11-15T01:35:31;67.47;;;26.07;;
73841;SDS011;62184;52.006;5.924;2022-11-15T01:37:57;71.30;;;26.53;;
73841;SDS011;62184;52.006;5.924;2022-11-15T01:40:24;78.15;;;27.40;;
73841;SDS011;62184;52.006;5.924;2022-11-15T01:42:53;68.55;;;26.85;;
73841;SDS011;62184;52.006;5.924;2022-11-15T01:45:19;78.43;;;27.30;;
73841;SDS011;62184;52.006;5.924;2022-11-15T01:47:47;71.67;;;26.80;;
73841;SDS011;62184;52.006;5.924;2022-11-15T01:50:19;66.27;;;27.03;;
73841;SDS011;62184;52.006;5.924;2022-11-15T01:52:51;76.03;;;28.45;;
73841;SDS011;62184;52.006;5.924;2022-11-15T01:55:19;69.23;;;26.73;;
73841;SDS011;62184;52.006;5.924;2022-11-15T01:57:50;72.10;;;25.85;;
73841;SDS011;62184;52.006;5.924;2022-11-15T02:00:23;67.88;;;26.63;;
73841;SDS011;62184;52.006;5.924;2022-11-15T02:02:50;71.30;;;26.38;;
73841;SDS011;62184;52.006;5.924;2022-11-15T02:05:17;61.95;;;25.23;;
73841;SDS011;62184;52.006;5.924;2022-11-15T02:07:43;66.70;;;26.02;;
73841;SDS011;62184;52.006;5.924;2022-11-15T02:10:12;63.15;;;25.17;;
73841;SDS011;62184;52.006;5.924;2022-11-15T02:12:44;63.10;;;25.65;;
73841;SDS011;62184;52.006;5.924;2022-11-15T02:15:15;60.75;;;25.20;;
73841;SDS011;62184;52.006;5.924;2022-11-15T02:17:47;62.00;;;25.05;;
73841;SDS011;62184;52.006;5.924;2022-11-15T02:20:39;58.55;;;24.52;;
73841;SDS011;62184;52.006;5.924;2022-11-15T02:30:21;57.17;;;23.60;;
73841;SDS011;62184;52.006;5.924;2022-11-15T02:33:00;55.35;;;24.20;;
73841;SDS011;62184;52.006;5.924;2022-11-15T02:35:41;56.35;;;24.17;;
73841;SDS011;62184;52.006;5.924;2022-11-15T02:38:20;48.53;;;22.20;;
73841;SDS011;62184;52.006;5.924;2022-11-15T02:41:01;52.63;;;22.83;;
73841;SDS011;62184;52.006;5.924;2022-11-15T02:43:36;49.35;;;23.25;;
73841;SDS011;62184;52.006;5.924;2022-11-15T02:46:14;50.30;;;22.60;;
73841;SDS011;62184;52.006;5.924;2022-11-15T02:48:49;49.47;;;22.07;;
73841;SDS011;62184;52.006;5.924;2022-11-15T02:51:16;48.00;;;21.97;;
73841;SDS011;62184;52.006;5.924;2022-11-15T02:53:44;49.87;;;22.47;;
73841;SDS011;62184;52.006;5.924;2022-11-15T02:56:10;47.72;;;22.30;;
73841;SDS011;62184;52.006;5.924;2022-11-15T03:01:45;48.47;;;21.88;;
73841;SDS011;62184;52.006;5.924;2022-11-15T03:04:36;48.22;;;22.30;;
73841;SDS011;62184;52.006;5.924;2022-11-15T03:07:11;42.85;;;21.00;;
73841;SDS011;62184;52.006;5.924;2022-11-15T03:09:45;43.65;;;20.55;;
73841;SDS011;62184;52.006;5.924;2022-11-15T03:12:23;44.43;;;21.33;;
73841;SDS011;62184;52.006;5.924;2022-11-15T03:15:00;43.37;;;21.23;;
73841;SDS011;62184;52.006;5.924;2022-11-15T03:17:37;44.80;;;22.30;;
73841;SDS011;62184;52.006;5.924;2022-11-15T03:20:13;46.47;;;21.58;;
73841;SDS011;62184;52.006;5.924;2022-11-15T03:22:43;42.58;;;21.02;;
73841;SDS011;62184;52.006;5.924;2022-11-15T03:25:14;41.47;;;21.38;;
73841;SDS011;62184;52.006;5.924;2022-11-15T03:27:47;42.75;;;21.27;;
73841;SDS011;62184;52.006;5.924;2022-11-15T03:30:20;45.38;;;22.30;;
73841;SDS011;62184;52.006;5.924;2022-11-15T03:32:50;41.10;;;21.17;;
73841;SDS011;62184;52.006;5.924;2022-11-15T03:35:22;43.00;;;21.48;;
73841;SDS011;62184;52.006;5.924;2022-11-15T03:37:53;38.97;;;20.70;;
73841;SDS011;62184;52.006;5.924;2022-11-15T03:40:30;41.83;;;20.65;;
73841;SDS011;62184;52.006;5.924;2022-11-15T03:43:04;43.90;;;21.05;;
73841;SDS011;62184;52.006;5.924;2022-11-15T03:45:41;38.40;;;19.85;;
73841;SDS011;62184;52.006;5.924;2022-11-15T03:48:20;40.38;;;20.65;;
73841;SDS011;62184;52.006;5.924;2022-11-15T03:50:52;40.25;;;21.15;;
73841;SDS011;62184;52.006;5.924;2022-11-15T03:53:19;42.13;;;21.23;;
73841;SDS011;62184;52.006;5.924;2022-11-15T03:55:46;42.63;;;21.00;;
73841;SDS011;62184;52.006;5.924;2022-11-15T03:58:12;43.55;;;21.83;;
73841;SDS011;62184;52.006;5.924;2022-11-15T04:00:38;43.38;;;21.55;;
73841;SDS011;62184;52.006;5.924;2022-11-15T04:03:05;40.35;;;20.52;;
73841;SDS011;62184;52.006;5.924;2022-11-15T04:05:34;41.22;;;20.73;;
73841;SDS011;62184;52.006;5.924;2022-11-15T04:08:00;43.17;;;20.67;;
73841;SDS011;62184;52.006;5.924;2022-11-15T04:10:26;40.13;;;20.17;;
73841;SDS011;62184;52.006;5.924;2022-11-15T04:12:53;41.67;;;21.02;;
73841;SDS011;62184;52.006;5.924;2022-11-15T04:15:21;40.33;;;21.08;;
73841;SDS011;62184;52.006;5.924;2022-11-15T04:17:49;43.88;;;21.52;;
73841;SDS011;62184;52.006;5.924;2022-11-15T04:20:18;43.43;;;21.17;;
73841;SDS011;62184;52.006;5.924;2022-11-15T04:22:51;43.40;;;21.27;;
73841;SDS011;62184;52.006;5.924;2022-11-15T04:25:18;44.87;;;21.67;;
73841;SDS011;62184;52.006;5.924;2022-11-15T04:27:45;43.77;;;20.87;;
73841;SDS011;62184;52.006;5.924;2022-11-15T04:30:11;44.33;;;21.90;;
73841;SDS011;62184;52.006;5.924;2022-11-15T04:32:38;46.08;;;22.08;;
73841;SDS011;62184;52.006;5.924;2022-11-15T04:35:04;42.25;;;21.58;;
73841;SDS011;62184;52.006;5.924;2022-11-15T04:37:32;46.50;;;21.02;;
73841;SDS011;62184;52.006;5.924;2022-11-15T04:40:01;44.85;;;20.45;;
73841;SDS011;62184;52.006;5.924;2022-11-15T04:42:27;42.37;;;20.37;;
73841;SDS011;62184;52.006;5.924;2022-11-15T04:44:53;45.10;;;21.10;;
73841;SDS011;62184;52.006;5.924;2022-11-15T04:47:20;43.65;;;20.92;;
73841;SDS011;62184;52.006;5.924;2022-11-15T04:49:46;44.47;;;21.05;;
73841;SDS011;62184;52.006;5.924;2022-11-15T04:52:12;43.63;;;20.23;;
73841;SDS011;62184;52.006;5.924;2022-11-15T04:54:39;43.15;;;20.73;;
73841;SDS011;62184;52.006;5.924;2022-11-15T04:57:08;38.97;;;19.80;;
73841;SDS011;62184;52.006;5.924;2022-11-15T04:59:34;41.70;;;19.47;;
73841;SDS011;62184;52.006;5.924;2022-11-15T05:02:01;42.80;;;21.13;;
73841;SDS011;62184;52.006;5.924;2022-11-15T05:04:27;42.53;;;21.07;;
73841;SDS011;62184;52.006;5.924;2022-11-15T05:06:53;39.60;;;20.47;;
73841;SDS011;62184;52.006;5.924;2022-11-15T05:09:20;37.08;;;19.75;;
73841;SDS011;62184;52.006;5.924;2022-11-15T05:11:47;40.17;;;19.77;;
73841;SDS011;62184;52.006;5.924;2022-11-15T05:14:16;42.55;;;20.88;;
73841;SDS011;62184;52.006;5.924;2022-11-15T05:16:43;39.53;;;21.05;;
73841;SDS011;62184;52.006;5.924;2022-11-15T05:19:09;37.97;;;19.67;;
73841;SDS011;62184;52.006;5.924;2022-11-15T05:21:36;38.47;;;20.50;;
73841;SDS011;62184;52.006;5.924;2022-11-15T05:24:03;39.25;;;19.73;;
73841;SDS011;62184;52.006;5.924;2022-11-15T05:26:31;39.87;;;20.13;;
73841;SDS011;62184;52.006;5.924;2022-11-15T05:28:58;40.95;;;20.40;;
73841;SDS011;62184;52.006;5.924;2022-11-15T05:31:30;40.05;;;20.52;;
73841;SDS011;62184;52.006;5.924;2022-11-15T05:33:56;41.72;;;21.42;;
73841;SDS011;62184;52.006;5.924;2022-11-15T05:36:27;41.58;;;20.70;;
73841;SDS011;62184;52.006;5.924;2022-11-15T05:39:01;42.97;;;21.10;;
73841;SDS011;62184;52.006;5.924;2022-11-15T05:41:30;42.50;;;21.17;;
73841;SDS011;62184;52.006;5.924;2022-11-15T05:44:02;44.10;;;21.60;;
73841;SDS011;62184;52.006;5.924;2022-11-15T05:46:38;40.53;;;21.27;;
73841;SDS011;62184;52.006;5.924;2022-11-15T05:49:09;42.20;;;20.77;;
73841;SDS011;62184;52.006;5.924;2022-11-15T05:51:41;44.93;;;22.17;;
73841;SDS011;62184;52.006;5.924;2022-11-15T05:54:10;45.53;;;22.60;;
73841;SDS011;62184;52.006;5.924;2022-11-15T05:56:37;43.78;;;20.88;;
73841;SDS011;62184;52.006;5.924;2022-11-15T05:59:04;45.35;;;21.73;;
73841;SDS011;62184;52.006;5.924;2022-11-15T06:01:33;43.22;;;21.38;;
73841;SDS011;62184;52.006;5.924;2022-11-15T06:04:03;43.42;;;21.63;;
73841;SDS011;62184;52.006;5.924;2022-11-15T06:06:29;45.55;;;20.67;;
73841;SDS011;62184;52.006;5.924;2022-11-15T06:08:56;45.58;;;21.58;;
73841;SDS011;62184;52.006;5.924;2022-11-15T06:11:22;46.08;;;21.13;;
73841;SDS011;62184;52.006;5.924;2022-11-15T06:13:48;42.90;;;20.92;;
73841;SDS011;62184;52.006;5.924;2022-11-15T06:16:15;42.50;;;20.98;;
73841;SDS011;62184;52.006;5.924;2022-11-15T06:18:41;47.97;;;22.08;;
73841;SDS011;62184;52.006;5.924;2022-11-15T06:21:10;43.50;;;21.58;;
73841;SDS011;62184;52.006;5.924;2022-11-15T06:23:36;46.55;;;20.65;;
73841;SDS011;62184;52.006;5.924;2022-11-15T06:26:03;44.90;;;20.83;;
73841;SDS011;62184;52.006;5.924;2022-11-15T06:28:30;45.05;;;20.55;;
73841;SDS011;62184;52.006;5.924;2022-11-15T06:31:01;50.17;;;21.75;;
73841;SDS011;62184;52.006;5.924;2022-11-15T06:33:29;48.88;;;21.90;;
73841;SDS011;62184;52.006;5.924;2022-11-15T06:35:55;49.03;;;22.42;;
73841;SDS011;62184;52.006;5.924;2022-11-15T06:38:28;55.47;;;22.77;;
73841;SDS011;62184;52.006;5.924;2022-11-15T06:40:55;49.13;;;22.23;;
73841;SDS011;62184;52.006;5.924;2022-11-15T06:43:28;48.97;;;22.17;;
73841;SDS011;62184;52.006;5.924;2022-11-15T06:45:54;50.28;;;22.30;;
73841;SDS011;62184;52.006;5.924;2022-11-15T06:48:20;46.67;;;21.65;;
73841;SDS011;62184;52.006;5.924;2022-11-15T06:50:49;49.83;;;23.55;;
73841;SDS011;62184;52.006;5.924;2022-11-15T06:53:17;50.88;;;22.25;;
73841;SDS011;62184;52.006;5.924;2022-11-15T06:55:46;53.10;;;22.60;;
73841;SDS011;62184;52.006;5.924;2022-11-15T06:58:12;51.72;;;23.58;;
73841;SDS011;62184;52.006;5.924;2022-11-15T07:00:39;50.10;;;22.98;;
73841;SDS011;62184;52.006;5.924;2022-11-15T07:03:06;50.60;;;23.20;;
73841;SDS011;62184;52.006;5.924;2022-11-15T07:05:33;52.28;;;23.25;;
73841;SDS011;62184;52.006;5.924;2022-11-15T07:08:00;56.83;;;23.53;;
73841;SDS011;62184;52.006;5.924;2022-11-15T07:10:28;53.33;;;23.33;;
73841;SDS011;62184;52.006;5.924;2022-11-15T07:12:58;56.90;;;24.27;;
73841;SDS011;62184;52.006;5.924;2022-11-15T07:15:25;52.75;;;23.52;;
73841;SDS011;62184;52.006;5.924;2022-11-15T07:17:51;50.95;;;23.30;;
73841;SDS011;62184;52.006;5.924;2022-11-15T07:20:18;50.47;;;22.40;;
73841;SDS011;62184;52.006;5.924;2022-11-15T07:22:45;51.07;;;23.07;;
73841;SDS011;62184;52.006;5.924;2022-11-15T07:25:11;48.83;;;21.85;;
73841;SDS011;62184;52.006;5.924;2022-11-15T07:27:38;51.63;;;22.25;;
73841;SDS011;62184;52.006;5.924;2022-11-15T07:30:07;51.80;;;22.02;;
73841;SDS011;62184;52.006;5.924;2022-11-15T07:32:35;47.70;;;21.23;;
73841;SDS011;62184;52.006;5.924;2022-11-15T07:35:02;50.90;;;20.90;;
73841;SDS011;62184;52.006;5.924;2022-11-15T07:37:28;51.63;;;21.60;;
73841;SDS011;62184;52.006;5.924;2022-11-15T07:39:55;50.60;;;20.45;;
73841;SDS011;62184;52.006;5.924;2022-11-15T07:42:21;50.93;;;20.77;;
73841;SDS011;62184;52.006;5.924;2022-11-15T07:44:47;51.47;;;21.03;;
73841;SDS011;62184;52.006;5.924;2022-11-15T07:47:16;53.70;;;20.27;;
73841;SDS011;62184;52.006;5.924;2022-11-15T07:49:43;49.08;;;19.55;;
73841;SDS011;62184;52.006;5.924;2022-11-15T07:52:09;50.58;;;21.08;;
73841;SDS011;62184;52.006;5.924;2022-11-15T07:54:36;52.60;;;20.30;;
73841;SDS011;62184;52.006;5.924;2022-11-15T07:57:02;49.63;;;20.03;;
73841;SDS011;62184;52.006;5.924;2022-11-15T07:59:29;49.05;;;19.58;;
73841;SDS011;62184;52.006;5.924;2022-11-15T08:01:55;50.10;;;19.50;;
73841;SDS011;62184;52.006;5.924;2022-11-15T08:04:24;48.15;;;19.58;;
73841;SDS011;62184;52.006;5.924;2022-11-15T08:06:51;51.47;;;19.85;;
73841;SDS011;62184;52.006;5.924;2022-11-15T08:09:17;50.60;;;19.35;;
73841;SDS011;62184;52.006;5.924;2022-11-15T08:11:43;44.33;;;18.55;;
73841;SDS011;62184;52.006;5.924;2022-11-15T08:14:10;47.10;;;19.02;;
73841;SDS011;62184;52.006;5.924;2022-11-15T08:16:36;43.95;;;18.50;;
73841;SDS011;62184;52.006;5.924;2022-11-15T08:19:03;45.05;;;18.20;;
73841;SDS011;62184;52.006;5.924;2022-11-15T08:21:32;42.80;;;17.95;;
73841;SDS011;62184;52.006;5.924;2022-11-15T08:23:58;41.97;;;17.40;;
73841;SDS011;62184;52.006;5.924;2022-11-15T08:26:24;38.15;;;17.35;;
73841;SDS011;62184;52.006;5.924;2022-11-15T08:28:52;37.58;;;17.10;;
73841;SDS011;62184;52.006;5.924;2022-11-15T08:31:19;37.78;;;16.85;;
73841;SDS011;62184;52.006;5.924;2022-11-15T08:33:45;35.13;;;16.40;;
73841;SDS011;62184;52.006;5.924;2022-11-15T08:36:12;35.58;;;16.38;;
73841;SDS011;62184;52.006;5.924;2022-11-15T08:38:43;31.95;;;16.08;;
73841;SDS011;62184;52.006;5.924;2022-11-15T08:41:11;32.53;;;15.47;;
73841;SDS011;62184;52.006;5.924;2022-11-15T08:43:48;32.22;;;16.80;;
73841;SDS011;62184;52.006;5.924;2022-11-15T08:46:14;33.88;;;15.70;;
73841;SDS011;62184;52.006;5.924;2022-11-15T08:48:41;31.15;;;16.17;;
73841;SDS011;62184;52.006;5.924;2022-11-15T08:51:07;32.03;;;15.82;;
73841;SDS011;62184;52.006;5.924;2022-11-15T08:53:33;28.90;;;15.52;;
73841;SDS011;62184;52.006;5.924;2022-11-15T08:56:03;30.67;;;15.55;;
73841;SDS011;62184;52.006;5.924;2022-11-15T08:58:33;29.42;;;15.45;;
73841;SDS011;62184;52.006;5.924;2022-11-15T09:01:00;30.08;;;15.30;;
73841;SDS011;62184;52.006;5.924;2022-11-15T09:03:26;28.02;;;15.07;;
73841;SDS011;62184;52.006;5.924;2022-11-15T09:05:56;27.33;;;14.80;;
73841;SDS011;62184;52.006;5.924;2022-11-15T09:08:24;23.77;;;13.98;;
73841;SDS011;62184;52.006;5.924;2022-11-15T09:10:54;25.33;;;14.57;;
73841;SDS011;62184;52.006;5.924;2022-11-15T09:13:23;25.67;;;13.85;;
73841;SDS011;62184;52.006;5.924;2022-11-15T09:15:50;24.85;;;13.75;;
73841;SDS011;62184;52.006;5.924;2022-11-15T09:18:16;22.60;;;13.50;;
73841;SDS011;62184;52.006;5.924;2022-11-15T09:20:42;20.88;;;12.70;;
73841;SDS011;62184;52.006;5.924;2022-11-15T09:23:09;21.55;;;12.75;;
73841;SDS011;62184;52.006;5.924;2022-11-15T09:25:37;21.80;;;12.18;;
73841;SDS011;62184;52.006;5.924;2022-11-15T09:28:05;18.52;;;11.57;;
73841;SDS011;62184;52.006;5.924;2022-11-15T09:30:35;19.90;;;11.68;;
73841;SDS011;62184;52.006;5.924;2022-11-15T09:33:05;19.00;;;11.83;;
73841;SDS011;62184;52.006;5.924;2022-11-15T09:35:32;20.63;;;11.90;;
73841;SDS011;62184;52.006;5.924;2022-11-15T09:37:59;20.55;;;11.80;;
73841;SDS011;62184;52.006;5.924;2022-11-15T09:40:25;18.98;;;10.88;;
73841;SDS011;62184;52.006;5.924;2022-11-15T09:42:57;18.65;;;11.13;;
73841;SDS011;62184;52.006;5.924;2022-11-15T09:45:57;18.33;;;10.82;;
73841;SDS011;62184;52.006;5.924;2022-11-15T09:48:42;17.17;;;10.63;;
73841;SDS011;62184;52.006;5.924;2022-11-15T09:51:23;18.90;;;10.80;;
73841;SDS011;62184;52.006;5.924;2022-11-15T09:53:57;19.60;;;11.13;;
73841;SDS011;62184;52.006;5.924;2022-11-15T09:56:31;17.50;;;10.55;;
73841;SDS011;62184;52.006;5.924;2022-11-15T09:59:07;17.27;;;10.77;;
73841;SDS011;62184;52.006;5.924;2022-11-15T10:01:59;16.65;;;10.77;;
73841;SDS011;62184;52.006;5.924;2022-11-15T10:04:44;17.08;;;10.25;;
73841;SDS011;62184;52.006;5.924;2022-11-15T10:07:13;15.48;;;10.05;;
73841;SDS011;62184;52.006;5.924;2022-11-15T10:09:50;15.43;;;10.10;;
73841;SDS011;62184;52.006;5.924;2022-11-15T10:12:22;14.50;;;9.10;;
73841;SDS011;62184;52.006;5.924;2022-11-15T10:14:54;16.92;;;10.00;;
73841;SDS011;62184;52.006;5.924;2022-11-15T10:17:34;13.70;;;8.75;;
73841;SDS011;62184;52.006;5.924;2022-11-15T10:20:27;14.17;;;9.20;;
73841;SDS011;62184;52.006;5.924;2022-11-15T10:22:56;13.43;;;8.47;;
73841;SDS011;62184;52.006;5.924;2022-11-15T10:25:27;13.80;;;8.20;;
73841;SDS011;62184;52.006;5.924;2022-11-15T10:27:56;12.57;;;7.75;;
73841;SDS011;62184;52.006;5.924;2022-11-15T10:30:31;11.15;;;7.70;;
73841;SDS011;62184;52.006;5.924;2022-11-15T10:33:11;11.97;;;7.70;;
73841;SDS011;62184;52.006;5.924;2022-11-15T10:35:48;11.82;;;7.30;;
73841;SDS011;62184;52.006;5.924;2022-11-15T10:38:14;12.63;;;7.95;;
73841;SDS011;62184;52.006;5.924;2022-11-15T10:40:41;10.68;;;7.00;;
73841;SDS011;62184;52.006;5.924;2022-11-15T10:43:13;10.80;;;5.93;;
73841;SDS011;62184;52.006;5.924;2022-11-15T10:45:43;7.97;;;5.22;;
73841;SDS011;62184;52.006;5.924;2022-11-15T10:48:24;8.48;;;4.70;;
73841;SDS011;62184;52.006;5.924;2022-11-15T10:50:51;8.20;;;4.77;;
73841;SDS011;62184;52.006;5.924;2022-11-15T10:53:28;9.48;;;5.30;;
73841;SDS011;62184;52.006;5.924;2022-11-15T10:56:05;8.60;;;5.40;;
73841;SDS011;62184;52.006;5.924;2022-11-15T10:58:39;8.23;;;4.65;;
73841;SDS011;62184;52.006;5.924;2022-11-15T11:01:14;8.65;;;4.90;;
73841;SDS011;62184;52.006;5.924;2022-11-15T11:03:57;7.72;;;4.45;;
73841;SDS011;62184;52.006;5.924;2022-11-15T11:06:25;8.05;;;4.10;;
73841;SDS011;62184;52.006;5.924;2022-11-15T11:08:55;8.30;;;4.20;;
73841;SDS011;62184;52.006;5.924;2022-11-15T11:11:24;8.90;;;4.03;;
73841;SDS011;62184;52.006;5.924;2022-11-15T11:14:11;7.20;;;3.83;;
73841;SDS011;62184;52.006;5.924;2022-11-15T11:16:42;6.95;;;4.15;;
73841;SDS011;62184;52.006;5.924;2022-11-15T11:19:23;9.23;;;3.87;;
73841;SDS011;62184;52.006;5.924;2022-11-15T11:22:06;7.40;;;4.25;;
73841;SDS011;62184;52.006;5.924;2022-11-15T11:24:47;7.60;;;4.30;;
73841;SDS011;62184;52.006;5.924;2022-11-15T11:27:39;8.30;;;3.83;;
73841;SDS011;62184;52.006;5.924;2022-11-15T11:30:32;7.25;;;3.70;;
73841;SDS011;62184;52.006;5.924;2022-11-15T11:33:27;7.77;;;3.33;;
73841;SDS011;62184;52.006;5.924;2022-11-15T11:36:03;7.80;;;3.83;;
73841;SDS011;62184;52.006;5.924;2022-11-15T11:38:52;7.55;;;3.40;;
73841;SDS011;62184;52.006;5.924;2022-11-15T11:41:37;6.18;;;3.50;;
73841;SDS011;62184;52.006;5.924;2022-11-15T11:44:22;6.68;;;3.10;;
73841;SDS011;62184;52.006;5.924;2022-11-15T11:46:59;5.65;;;2.90;;
73841;SDS011;62184;52.006;5.924;2022-11-15T11:49:31;7.15;;;2.55;;
73841;SDS011;62184;52.006;5.924;2022-11-15T11:52:11;6.87;;;2.70;;
73841;SDS011;62184;52.006;5.924;2022-11-15T11:54:48;6.60;;;2.60;;
73841;SDS011;62184;52.006;5.924;2022-11-15T11:57:29;5.43;;;2.60;;
73841;SDS011;62184;52.006;5.924;2022-11-15T12:00:13;6.30;;;2.85;;
73841;SDS011;62184;52.006;5.924;2022-11-15T12:02:45;6.15;;;2.60;;
73841;SDS011;62184;52.006;5.924;2022-11-15T12:05:26;6.03;;;2.30;;
73841;SDS011;62184;52.006;5.924;2022-11-15T12:08:04;7.43;;;2.78;;
73841;SDS011;62184;52.006;5.924;2022-11-15T12:10:52;5.60;;;2.20;;
73841;SDS011;62184;52.006;5.924;2022-11-15T12:13:30;6.70;;;2.30;;
73841;SDS011;62184;52.006;5.924;2022-11-15T12:16:01;5.60;;;2.20;;
73841;SDS011;62184;52.006;5.924;2022-11-15T12:18:35;6.35;;;2.47;;
73841;SDS011;62184;52.006;5.924;2022-11-15T12:21:03;5.78;;;2.10;;
73841;SDS011;62184;52.006;5.924;2022-11-15T12:23:48;5.85;;;2.40;;
73841;SDS011;62184;52.006;5.924;2022-11-15T12:26:22;5.35;;;2.53;;
73841;SDS011;62184;52.006;5.924;2022-11-15T12:28:57;5.78;;;2.50;;
73841;SDS011;62184;52.006;5.924;2022-11-15T12:31:30;5.82;;;2.58;;
73841;SDS011;62184;52.006;5.924;2022-11-15T12:34:12;7.15;;;3.58;;
73841;SDS011;62184;52.006;5.924;2022-11-15T12:36:55;6.70;;;2.70;;
73841;SDS011;62184;52.006;5.924;2022-11-15T12:39:24;7.18;;;2.70;;
73841;SDS011;62184;52.006;5.924;2022-11-15T12:42:39;6.73;;;2.63;;
73841;SDS011;62184;52.006;5.924;2022-11-15T12:45:25;6.57;;;2.38;;
73841;SDS011;62184;52.006;5.924;2022-11-15T12:47:56;6.32;;;2.05;;
73841;SDS011;62184;52.006;5.924;2022-11-15T12:51:18;6.57;;;2.22;;
73841;SDS011;62184;52.006;5.924;2022-11-15T12:53:47;6.43;;;2.30;;
73841;SDS011;62184;52.006;5.924;2022-11-15T12:56:25;5.63;;;2.30;;
73841;SDS011;62184;52.006;5.924;2022-11-15T12:58:54;5.75;;;1.98;;
73841;SDS011;62184;52.006;5.924;2022-11-15T13:04:26;4.57;;;1.83;;
73841;SDS011;62184;52.006;5.924;2022-11-15T13:06:56;5.40;;;1.90;;
73841;SDS011;62184;52.006;5.924;2022-11-15T13:15:37;7.03;;;2.40;;
73841;SDS011;62184;52.006;5.924;2022-11-15T13:18:30;5.45;;;1.90;;
73841;SDS011;62184;52.006;5.924;2022-11-15T13:21:02;7.50;;;2.20;;
73841;SDS011;62184;52.006;5.924;2022-11-15T13:23:31;6.20;;;2.50;;
73841;SDS011;62184;52.006;5.924;2022-11-15T13:26:02;7.40;;;3.63;;
73841;SDS011;62184;52.006;5.924;2022-11-15T13:28:42;7.82;;;1.95;;
73841;SDS011;62184;52.006;5.924;2022-11-15T13:34:03;5.65;;;1.50;;
73841;SDS011;62184;52.006;5.924;2022-11-15T13:36:50;6.20;;;1.67;;
73841;SDS011;62184;52.006;5.924;2022-11-15T13:39:25;4.82;;;1.58;;
73841;SDS011;62184;52.006;5.924;2022-11-15T13:41:54;5.40;;;1.90;;
73841;SDS011;62184;52.006;5.924;2022-11-15T13:44:24;5.85;;;1.77;;
73841;SDS011;62184;52.006;5.924;2022-11-15T13:47:01;6.03;;;1.60;;
73841;SDS011;62184;52.006;5.924;2022-11-15T13:49:32;5.57;;;1.77;;
73841;SDS011;62184;52.006;5.924;2022-11-15T13:52:00;5.70;;;1.80;;
73841;SDS011;62184;52.006;5.924;2022-11-15T13:54:33;5.32;;;2.03;;
73841;SDS011;62184;52.006;5.924;2022-11-15T13:57:05;6.33;;;2.00;;
73841;SDS011;62184;52.006;5.924;2022-11-15T13:59:46;7.63;;;2.17;;
73841;SDS011;62184;52.006;5.924;2022-11-15T14:02:16;5.40;;;1.87;;
73841;SDS011;62184;52.006;5.924;2022-11-15T14:04:48;5.15;;;1.63;;
73841;SDS011;62184;52.006;5.924;2022-11-15T14:07:21;6.50;;;2.03;;
73841;SDS011;62184;52.006;5.924;2022-11-15T14:09:50;6.80;;;1.90;;
73841;SDS011;62184;52.006;5.924;2022-11-15T14:12:24;5.03;;;1.80;;
73841;SDS011;62184;52.006;5.924;2022-11-15T14:14:58;6.60;;;2.40;;
73841;SDS011;62184;52.006;5.924;2022-11-15T14:17:35;5.57;;;2.00;;
73841;SDS011;62184;52.006;5.924;2022-11-15T14:20:18;5.95;;;1.75;;
73841;SDS011;62184;52.006;5.924;2022-11-15T14:22:52;5.20;;;1.73;;
73841;SDS011;62184;52.006;5.924;2022-11-15T14:25:23;6.32;;;2.08;;
73841;SDS011;62184;52.006;5.924;2022-11-15T14:30:45;5.00;;;1.60;;
73841;SDS011;62184;52.006;5.924;2022-11-15T14:33:17;6.25;;;1.80;;
73841;SDS011;62184;52.006;5.924;2022-11-15T14:35:47;5.90;;;1.70;;
73841;SDS011;62184;52.006;5.924;2022-11-15T14:38:15;6.38;;;2.10;;
73841;SDS011;62184;52.006;5.924;2022-11-15T14:40:42;6.47;;;2.30;;
73841;SDS011;62184;52.006;5.924;2022-11-15T14:43:09;6.30;;;2.40;;
73841;SDS011;62184;52.006;5.924;2022-11-15T14:45:38;6.60;;;1.92;;
73841;SDS011;62184;52.006;5.924;2022-11-15T14:48:07;5.45;;;1.83;;
73841;SDS011;62184;52.006;5.924;2022-11-15T14:50:34;7.93;;;1.90;;
73841;SDS011;62184;52.006;5.924;2022-11-15T14:53:01;5.72;;;1.85;;
73841;SDS011;62184;52.006;5.924;2022-11-15T14:55:29;5.78;;;1.42;;
73841;SDS011;62184;52.006;5.924;2022-11-15T14:57:58;5.20;;;2.00;;
73841;SDS011;62184;52.006;5.924;2022-11-15T15:00:24;5.60;;;1.90;;
73841;SDS011;62184;52.006;5.924;2022-11-15T15:02:52;4.60;;;1.80;;
73841;SDS011;62184;52.006;5.924;2022-11-15T15:05:23;5.25;;;2.10;;
73841;SDS011;62184;52.006;5.924;2022-11-15T15:07:51;6.13;;;1.87;;
73841;SDS011;62184;52.006;5.924;2022-11-15T15:10:18;5.80;;;2.20;;
73841;SDS011;62184;52.006;5.924;2022-11-15T15:12:45;6.03;;;2.05;;
73841;SDS011;62184;52.006;5.924;2022-11-15T15:15:14;7.85;;;2.20;;
73841;SDS011;62184;52.006;5.924;2022-11-15T15:17:44;5.50;;;2.07;;